Terminal Aerodrome Forecast
Issued by NWS Charleston, WV

Current Version | Previous Version | Text Only | Print | Product List | Glossary Off
Versions: 1 2 3 4 5 6 7 8 9 10 11 12 13 14 15 16 17 18 19 20 21 22 23 24

000
FTUS41 KRLX 192300
TAFPKB
TAF
KPKB 192328Z 2000/2024 13007KT P6SM VCSH BKN045
     FM200200 13006KT P6SM SCT045
     FM201000 16006G14KT 6SM BR SCT050
     FM201500 19010G15KT P6SM SCT040
     FM202300 17007KT P6SM SCT050=

USA.gov is the U.S. government's official web portal to all federal, state and local government web resources and services.